sensor_id;sensor_type;location;lat;lon;timestamp;P1;durP1;ratioP1;P2;durP2;ratioP2
37239;SDS011;23130;48.760;9.178;2023-01-09T00:01:43;7.45;;;5.10;;
37239;SDS011;23130;48.760;9.178;2023-01-09T00:04:11;8.50;;;4.50;;
37239;SDS011;23130;48.760;9.178;2023-01-09T00:06:37;8.57;;;5.38;;
37239;SDS011;23130;48.760;9.178;2023-01-09T00:09:04;9.27;;;5.18;;
37239;SDS011;23130;48.760;9.178;2023-01-09T00:11:30;8.18;;;4.60;;
37239;SDS011;23130;48.760;9.178;2023-01-09T00:13:56;8.05;;;5.35;;
37239;SDS011;23130;48.760;9.178;2023-01-09T00:16:22;6.10;;;4.78;;
37239;SDS011;23130;48.760;9.178;2023-01-09T00:18:47;7.78;;;4.78;;
37239;SDS011;23130;48.760;9.178;2023-01-09T00:21:13;6.75;;;4.72;;
37239;SDS011;23130;48.760;9.178;2023-01-09T00:23:39;8.60;;;4.85;;
37239;SDS011;23130;48.760;9.178;2023-01-09T00:26:12;7.60;;;4.13;;
37239;SDS011;23130;48.760;9.178;2023-01-09T00:28:40;6.00;;;3.80;;
37239;SDS011;23130;48.760;9.178;2023-01-09T00:31:06;6.15;;;3.70;;
37239;SDS011;23130;48.760;9.178;2023-01-09T00:33:37;4.20;;;3.33;;
37239;SDS011;23130;48.760;9.178;2023-01-09T00:36:12;6.80;;;3.95;;
37239;SDS011;23130;48.760;9.178;2023-01-09T00:38:38;4.53;;;3.08;;
37239;SDS011;23130;48.760;9.178;2023-01-09T00:41:05;4.72;;;2.75;;
37239;SDS011;23130;48.760;9.178;2023-01-09T00:43:35;4.50;;;2.97;;
37239;SDS011;23130;48.760;9.178;2023-01-09T00:46:08;4.22;;;2.65;;
37239;SDS011;23130;48.760;9.178;2023-01-09T00:48:36;4.20;;;2.65;;
37239;SDS011;23130;48.760;9.178;2023-01-09T00:51:04;2.60;;;1.88;;
37239;SDS011;23130;48.760;9.178;2023-01-09T00:53:32;4.22;;;1.80;;
37239;SDS011;23130;48.760;9.178;2023-01-09T00:56:02;2.40;;;1.40;;
37239;SDS011;23130;48.760;9.178;2023-01-09T00:58:30;2.42;;;1.83;;
37239;SDS011;23130;48.760;9.178;2023-01-09T01:00:57;2.55;;;1.48;;
37239;SDS011;23130;48.760;9.178;2023-01-09T01:03:23;2.30;;;1.17;;
37239;SDS011;23130;48.760;9.178;2023-01-09T01:05:49;1.92;;;1.27;;
37239;SDS011;23130;48.760;9.178;2023-01-09T01:08:33;1.35;;;0.85;;
37239;SDS011;23130;48.760;9.178;2023-01-09T01:11:02;1.73;;;0.80;;
37239;SDS011;23130;48.760;9.178;2023-01-09T01:13:36;1.95;;;0.90;;
37239;SDS011;23130;48.760;9.178;2023-01-09T01:16:04;1.30;;;0.63;;
37239;SDS011;23130;48.760;9.178;2023-01-09T01:18:31;2.35;;;0.70;;
37239;SDS011;23130;48.760;9.178;2023-01-09T01:20:56;1.80;;;0.68;;
37239;SDS011;23130;48.760;9.178;2023-01-09T01:23:22;1.15;;;0.60;;
37239;SDS011;23130;48.760;9.178;2023-01-09T01:25:48;1.38;;;0.73;;
37239;SDS011;23130;48.760;9.178;2023-01-09T01:28:14;1.17;;;0.60;;
37239;SDS011;23130;48.760;9.178;2023-01-09T01:30:40;0.95;;;0.50;;
37239;SDS011;23130;48.760;9.178;2023-01-09T01:33:07;1.00;;;0.43;;
37239;SDS011;23130;48.760;9.178;2023-01-09T01:35:33;0.77;;;0.40;;
37239;SDS011;23130;48.760;9.178;2023-01-09T01:37:58;1.73;;;0.60;;
37239;SDS011;23130;48.760;9.178;2023-01-09T01:40:24;0.65;;;0.30;;
37239;SDS011;23130;48.760;9.178;2023-01-09T01:42:50;1.00;;;0.40;;
37239;SDS011;23130;48.760;9.178;2023-01-09T01:45:18;1.38;;;0.50;;
37239;SDS011;23130;48.760;9.178;2023-01-09T01:53:20;0.82;;;0.20;;
37239;SDS011;23130;48.760;9.178;2023-01-09T01:58:45;0.98;;;0.30;;
37239;SDS011;23130;48.760;9.178;2023-01-09T02:01:17;0.80;;;0.40;;
37239;SDS011;23130;48.760;9.178;2023-01-09T02:03:44;2.45;;;0.32;;
37239;SDS011;23130;48.760;9.178;2023-01-09T02:06:11;0.98;;;0.40;;
37239;SDS011;23130;48.760;9.178;2023-01-09T02:08:37;2.92;;;0.30;;
37239;SDS011;23130;48.760;9.178;2023-01-09T02:11:03;1.35;;;0.40;;
37239;SDS011;23130;48.760;9.178;2023-01-09T02:13:31;0.50;;;0.20;;
37239;SDS011;23130;48.760;9.178;2023-01-09T02:24:42;0.55;;;0.30;;
37239;SDS011;23130;48.760;9.178;2023-01-09T02:30:18;0.50;;;0.15;;
37239;SDS011;23130;48.760;9.178;2023-01-09T02:32:57;1.02;;;0.10;;
37239;SDS011;23130;48.760;9.178;2023-01-09T02:40:43;1.05;;;0.30;;
37239;SDS011;23130;48.760;9.178;2023-01-09T02:43:17;0.65;;;0.30;;
37239;SDS011;23130;48.760;9.178;2023-01-09T02:45:43;2.90;;;0.20;;
37239;SDS011;23130;48.760;9.178;2023-01-09T02:48:09;0.60;;;0.22;;
37239;SDS011;23130;48.760;9.178;2023-01-09T02:50:42;2.88;;;0.38;;
37239;SDS011;23130;48.760;9.178;2023-01-09T03:02:53;0.43;;;0.20;;
37239;SDS011;23130;48.760;9.178;2023-01-09T03:05:02;0.57;;;0.10;;
37239;SDS011;23130;48.760;9.178;2023-01-09T03:10:12;0.85;;;0.10;;
37239;SDS011;23130;48.760;9.178;2023-01-09T03:12:43;0.20;;;0.13;;
37239;SDS011;23130;48.760;9.178;2023-01-09T03:15:11;1.15;;;0.10;;
37239;SDS011;23130;48.760;9.178;2023-01-09T03:17:40;0.60;;;0.10;;
37239;SDS011;23130;48.760;9.178;2023-01-09T03:20:11;0.45;;;0.10;;
37239;SDS011;23130;48.760;9.178;2023-01-09T03:22:39;0.30;;;0.10;;
37239;SDS011;23130;48.760;9.178;2023-01-09T03:25:17;0.43;;;0.20;;
37239;SDS011;23130;48.760;9.178;2023-01-09T03:27:43;0.22;;;0.00;;
37239;SDS011;23130;48.760;9.178;2023-01-09T03:30:09;0.82;;;0.10;;
37239;SDS011;23130;48.760;9.178;2023-01-09T03:32:35;0.57;;;0.20;;
37239;SDS011;23130;48.760;9.178;2023-01-09T03:35:00;0.60;;;0.10;;
37239;SDS011;23130;48.760;9.178;2023-01-09T03:37:26;0.30;;;0.05;;
37239;SDS011;23130;48.760;9.178;2023-01-09T03:39:51;0.10;;;0.08;;
37239;SDS011;23130;48.760;9.178;2023-01-09T03:42:17;0.55;;;0.10;;
37239;SDS011;23130;48.760;9.178;2023-01-09T03:44:43;1.48;;;0.10;;
37239;SDS011;23130;48.760;9.178;2023-01-09T03:47:08;0.30;;;0.10;;
37239;SDS011;23130;48.760;9.178;2023-01-09T03:49:34;0.57;;;0.00;;
37239;SDS011;23130;48.760;9.178;2023-01-09T03:51:59;0.00;;;0.00;;
37239;SDS011;23130;48.760;9.178;2023-01-09T03:54:25;0.00;;;0.00;;
37239;SDS011;23130;48.760;9.178;2023-01-09T03:56:50;0.30;;;0.00;;
37239;SDS011;23130;48.760;9.178;2023-01-09T03:59:16;0.00;;;0.00;;
37239;SDS011;23130;48.760;9.178;2023-01-09T04:01:41;1.42;;;0.13;;
37239;SDS011;23130;48.760;9.178;2023-01-09T04:04:07;0.13;;;0.00;;
37239;SDS011;23130;48.760;9.178;2023-01-09T04:06:32;0.28;;;0.08;;
37239;SDS011;23130;48.760;9.178;2023-01-09T04:08:58;0.73;;;0.10;;
37239;SDS011;23130;48.760;9.178;2023-01-09T04:11:24;0.80;;;0.00;;
37239;SDS011;23130;48.760;9.178;2023-01-09T04:13:49;2.60;;;0.00;;
37239;SDS011;23130;48.760;9.178;2023-01-09T04:16:15;0.10;;;0.00;;
37239;SDS011;23130;48.760;9.178;2023-01-09T04:18:40;0.35;;;0.10;;
37239;SDS011;23130;48.760;9.178;2023-01-09T04:21:06;0.08;;;0.00;;
37239;SDS011;23130;48.760;9.178;2023-01-09T04:23:31;7.13;;;1.45;;
37239;SDS011;23130;48.760;9.178;2023-01-09T04:25:57;0.08;;;0.00;;
37239;SDS011;23130;48.760;9.178;2023-01-09T04:28:22;0.03;;;0.00;;
37239;SDS011;23130;48.760;9.178;2023-01-09T04:30:48;0.10;;;0.00;;
37239;SDS011;23130;48.760;9.178;2023-01-09T04:33:13;0.25;;;0.08;;
37239;SDS011;23130;48.760;9.178;2023-01-09T04:35:39;0.03;;;0.00;;
37239;SDS011;23130;48.760;9.178;2023-01-09T04:38:04;0.30;;;0.00;;
37239;SDS011;23130;48.760;9.178;2023-01-09T04:40:30;0.10;;;0.00;;
37239;SDS011;23130;48.760;9.178;2023-01-09T04:42:55;0.05;;;0.00;;
37239;SDS011;23130;48.760;9.178;2023-01-09T04:45:21;0.22;;;0.00;;
37239;SDS011;23130;48.760;9.178;2023-01-09T04:47:49;0.10;;;0.00;;
37239;SDS011;23130;48.760;9.178;2023-01-09T04:50:14;0.10;;;0.10;;
37239;SDS011;23130;48.760;9.178;2023-01-09T04:52:40;0.03;;;0.00;;
37239;SDS011;23130;48.760;9.178;2023-01-09T04:55:06;0.10;;;0.00;;
37239;SDS011;23130;48.760;9.178;2023-01-09T04:57:32;0.47;;;0.00;;
37239;SDS011;23130;48.760;9.178;2023-01-09T04:59:58;0.13;;;0.00;;
37239;SDS011;23130;48.760;9.178;2023-01-09T05:02:24;0.98;;;0.05;;
37239;SDS011;23130;48.760;9.178;2023-01-09T05:04:49;0.00;;;0.00;;
37239;SDS011;23130;48.760;9.178;2023-01-09T05:07:15;0.98;;;0.00;;
37239;SDS011;23130;48.760;9.178;2023-01-09T05:09:40;0.17;;;0.00;;
37239;SDS011;23130;48.760;9.178;2023-01-09T05:12:06;0.20;;;0.00;;
37239;SDS011;23130;48.760;9.178;2023-01-09T05:14:32;0.30;;;0.00;;
37239;SDS011;23130;48.760;9.178;2023-01-09T05:16:58;0.30;;;0.10;;
37239;SDS011;23130;48.760;9.178;2023-01-09T05:19:23;0.28;;;0.03;;
37239;SDS011;23130;48.760;9.178;2023-01-09T05:21:49;0.65;;;0.10;;
37239;SDS011;23130;48.760;9.178;2023-01-09T05:24:14;0.43;;;0.10;;
37239;SDS011;23130;48.760;9.178;2023-01-09T05:26:40;0.10;;;0.00;;
37239;SDS011;23130;48.760;9.178;2023-01-09T05:29:05;2.50;;;0.10;;
37239;SDS011;23130;48.760;9.178;2023-01-09T05:31:31;1.17;;;0.10;;
37239;SDS011;23130;48.760;9.178;2023-01-09T05:33:57;0.57;;;0.10;;
37239;SDS011;23130;48.760;9.178;2023-01-09T05:36:24;0.63;;;0.13;;
37239;SDS011;23130;48.760;9.178;2023-01-09T05:38:50;4.43;;;0.38;;
37239;SDS011;23130;48.760;9.178;2023-01-09T05:41:15;0.77;;;0.17;;
37239;SDS011;23130;48.760;9.178;2023-01-09T05:43:41;2.90;;;0.47;;
37239;SDS011;23130;48.760;9.178;2023-01-09T05:46:06;0.30;;;0.10;;
37239;SDS011;23130;48.760;9.178;2023-01-09T05:48:32;0.75;;;0.10;;
37239;SDS011;23130;48.760;9.178;2023-01-09T05:50:57;1.50;;;0.20;;
37239;SDS011;23130;48.760;9.178;2023-01-09T05:53:23;1.95;;;0.13;;
37239;SDS011;23130;48.760;9.178;2023-01-09T05:55:49;2.72;;;0.20;;
37239;SDS011;23130;48.760;9.178;2023-01-09T05:58:14;0.38;;;0.10;;
37239;SDS011;23130;48.760;9.178;2023-01-09T06:00:40;0.73;;;0.20;;
37239;SDS011;23130;48.760;9.178;2023-01-09T06:03:05;0.70;;;0.25;;
37239;SDS011;23130;48.760;9.178;2023-01-09T06:05:31;1.70;;;0.20;;
37239;SDS011;23130;48.760;9.178;2023-01-09T06:07:57;0.47;;;0.10;;
37239;SDS011;23130;48.760;9.178;2023-01-09T06:10:23;1.95;;;0.17;;
37239;SDS011;23130;48.760;9.178;2023-01-09T06:12:49;0.45;;;0.10;;
37239;SDS011;23130;48.760;9.178;2023-01-09T06:15:15;1.85;;;0.10;;
37239;SDS011;23130;48.760;9.178;2023-01-09T06:17:41;2.92;;;0.13;;
37239;SDS011;23130;48.760;9.178;2023-01-09T06:20:07;0.22;;;0.08;;
37239;SDS011;23130;48.760;9.178;2023-01-09T06:22:33;2.38;;;0.30;;
37239;SDS011;23130;48.760;9.178;2023-01-09T06:24:59;0.90;;;0.20;;
37239;SDS011;23130;48.760;9.178;2023-01-09T06:27:24;1.10;;;0.10;;
37239;SDS011;23130;48.760;9.178;2023-01-09T06:29:50;0.73;;;0.60;;
37239;SDS011;23130;48.760;9.178;2023-01-09T06:32:15;1.42;;;0.32;;
37239;SDS011;23130;48.760;9.178;2023-01-09T06:34:41;0.73;;;0.20;;
37239;SDS011;23130;48.760;9.178;2023-01-09T06:37:07;0.82;;;0.25;;
37239;SDS011;23130;48.760;9.178;2023-01-09T06:39:32;0.65;;;0.10;;
37239;SDS011;23130;48.760;9.178;2023-01-09T06:41:58;2.08;;;0.13;;
37239;SDS011;23130;48.760;9.178;2023-01-09T06:44:23;0.93;;;0.60;;
37239;SDS011;23130;48.760;9.178;2023-01-09T06:46:49;0.85;;;0.20;;
37239;SDS011;23130;48.760;9.178;2023-01-09T06:49:14;2.17;;;0.35;;
37239;SDS011;23130;48.760;9.178;2023-01-09T06:51:42;1.33;;;0.20;;
37239;SDS011;23130;48.760;9.178;2023-01-09T06:54:07;1.17;;;0.22;;
37239;SDS011;23130;48.760;9.178;2023-01-09T06:56:33;3.22;;;0.30;;
37239;SDS011;23130;48.760;9.178;2023-01-09T06:58:58;2.17;;;0.30;;
37239;SDS011;23130;48.760;9.178;2023-01-09T07:01:25;2.50;;;0.40;;
37239;SDS011;23130;48.760;9.178;2023-01-09T07:03:50;3.50;;;0.28;;
37239;SDS011;23130;48.760;9.178;2023-01-09T07:06:16;1.80;;;0.60;;
37239;SDS011;23130;48.760;9.178;2023-01-09T07:08:42;2.30;;;1.45;;
37239;SDS011;23130;48.760;9.178;2023-01-09T07:11:08;4.00;;;0.57;;
37239;SDS011;23130;48.760;9.178;2023-01-09T07:13:33;2.10;;;0.68;;
37239;SDS011;23130;48.760;9.178;2023-01-09T07:15:59;3.35;;;1.85;;
37239;SDS011;23130;48.760;9.178;2023-01-09T07:18:27;2.97;;;0.60;;
37239;SDS011;23130;48.760;9.178;2023-01-09T07:20:52;4.10;;;0.63;;
37239;SDS011;23130;48.760;9.178;2023-01-09T07:23:18;2.40;;;0.40;;
37239;SDS011;23130;48.760;9.178;2023-01-09T07:25:43;1.73;;;0.25;;
37239;SDS011;23130;48.760;9.178;2023-01-09T07:28:09;1.35;;;0.40;;
37239;SDS011;23130;48.760;9.178;2023-01-09T07:30:35;0.63;;;0.30;;
37239;SDS011;23130;48.760;9.178;2023-01-09T07:33:00;4.43;;;0.43;;
37239;SDS011;23130;48.760;9.178;2023-01-09T07:35:26;3.78;;;0.50;;
37239;SDS011;23130;48.760;9.178;2023-01-09T07:37:52;1.25;;;0.30;;
37239;SDS011;23130;48.760;9.178;2023-01-09T07:40:17;7.40;;;0.77;;
37239;SDS011;23130;48.760;9.178;2023-01-09T07:42:43;1.67;;;0.22;;
37239;SDS011;23130;48.760;9.178;2023-01-09T07:45:09;1.83;;;0.45;;
37239;SDS011;23130;48.760;9.178;2023-01-09T07:47:35;2.03;;;0.28;;
37239;SDS011;23130;48.760;9.178;2023-01-09T07:50:00;4.00;;;0.40;;
37239;SDS011;23130;48.760;9.178;2023-01-09T07:52:26;1.73;;;0.50;;
37239;SDS011;23130;48.760;9.178;2023-01-09T07:54:51;4.15;;;0.32;;
37239;SDS011;23130;48.760;9.178;2023-01-09T07:57:17;4.97;;;0.50;;
37239;SDS011;23130;48.760;9.178;2023-01-09T07:59:43;2.80;;;1.10;;
37239;SDS011;23130;48.760;9.178;2023-01-09T08:02:08;1.13;;;0.52;;
37239;SDS011;23130;48.760;9.178;2023-01-09T08:04:34;3.75;;;1.02;;
37239;SDS011;23130;48.760;9.178;2023-01-09T08:06:59;5.45;;;0.43;;
37239;SDS011;23130;48.760;9.178;2023-01-09T08:09:27;1.05;;;0.35;;
37239;SDS011;23130;48.760;9.178;2023-01-09T08:11:52;3.22;;;0.50;;
37239;SDS011;23130;48.760;9.178;2023-01-09T08:14:18;1.67;;;0.50;;
37239;SDS011;23130;48.760;9.178;2023-01-09T08:16:44;6.03;;;0.90;;
37239;SDS011;23130;48.760;9.178;2023-01-09T08:19:09;2.25;;;0.63;;
37239;SDS011;23130;48.760;9.178;2023-01-09T08:21:36;2.17;;;0.50;;
37239;SDS011;23130;48.760;9.178;2023-01-09T08:24:02;1.48;;;0.52;;
37239;SDS011;23130;48.760;9.178;2023-01-09T08:26:27;3.42;;;0.50;;
37239;SDS011;23130;48.760;9.178;2023-01-09T08:28:53;1.25;;;0.35;;
37239;SDS011;23130;48.760;9.178;2023-01-09T08:31:18;2.10;;;0.30;;
37239;SDS011;23130;48.760;9.178;2023-01-09T08:33:44;1.13;;;0.40;;
37239;SDS011;23130;48.760;9.178;2023-01-09T08:36:10;2.75;;;0.75;;
37239;SDS011;23130;48.760;9.178;2023-01-09T08:38:35;2.03;;;0.60;;
37239;SDS011;23130;48.760;9.178;2023-01-09T08:41:01;5.68;;;1.13;;
37239;SDS011;23130;48.760;9.178;2023-01-09T08:43:49;0.70;;;0.40;;
37239;SDS011;23130;48.760;9.178;2023-01-09T08:46:33;2.10;;;0.30;;
37239;SDS011;23130;48.760;9.178;2023-01-09T08:49:18;5.25;;;0.73;;
37239;SDS011;23130;48.760;9.178;2023-01-09T08:51:44;4.72;;;0.50;;
37239;SDS011;23130;48.760;9.178;2023-01-09T08:54:10;5.05;;;0.30;;
37239;SDS011;23130;48.760;9.178;2023-01-09T08:56:35;4.38;;;0.60;;
37239;SDS011;23130;48.760;9.178;2023-01-09T08:59:01;2.55;;;0.52;;
37239;SDS011;23130;48.760;9.178;2023-01-09T09:01:26;1.77;;;0.45;;
37239;SDS011;23130;48.760;9.178;2023-01-09T09:03:52;2.80;;;0.40;;
37239;SDS011;23130;48.760;9.178;2023-01-09T09:06:17;2.95;;;0.43;;
37239;SDS011;23130;48.760;9.178;2023-01-09T09:08:43;6.80;;;0.40;;
37239;SDS011;23130;48.760;9.178;2023-01-09T09:11:08;2.38;;;0.30;;
37239;SDS011;23130;48.760;9.178;2023-01-09T09:13:34;3.03;;;0.57;;
37239;SDS011;23130;48.760;9.178;2023-01-09T09:15:59;2.05;;;0.35;;
37239;SDS011;23130;48.760;9.178;2023-01-09T09:18:25;2.75;;;0.32;;
37239;SDS011;23130;48.760;9.178;2023-01-09T09:20:50;2.33;;;0.30;;
37239;SDS011;23130;48.760;9.178;2023-01-09T09:23:16;2.78;;;0.30;;
37239;SDS011;23130;48.760;9.178;2023-01-09T09:25:42;1.90;;;0.30;;
37239;SDS011;23130;48.760;9.178;2023-01-09T09:28:08;2.85;;;0.57;;
37239;SDS011;23130;48.760;9.178;2023-01-09T09:30:33;2.47;;;0.20;;
37239;SDS011;23130;48.760;9.178;2023-01-09T09:33:01;2.60;;;0.47;;
37239;SDS011;23130;48.760;9.178;2023-01-09T09:35:28;3.92;;;0.70;;
37239;SDS011;23130;48.760;9.178;2023-01-09T09:37:55;1.10;;;0.40;;
37239;SDS011;23130;48.760;9.178;2023-01-09T09:43:17;5.25;;;0.40;;
37239;SDS011;23130;48.760;9.178;2023-01-09T09:48:58;2.67;;;0.20;;
37239;SDS011;23130;48.760;9.178;2023-01-09T09:54:16;3.47;;;1.00;;
37239;SDS011;23130;48.760;9.178;2023-01-09T09:56:55;2.83;;;0.57;;
37239;SDS011;23130;48.760;9.178;2023-01-09T09:59:23;3.92;;;0.57;;
37239;SDS011;23130;48.760;9.178;2023-01-09T10:01:59;4.60;;;1.00;;
37239;SDS011;23130;48.760;9.178;2023-01-09T10:04:30;6.15;;;1.00;;
37239;SDS011;23130;48.760;9.178;2023-01-09T10:07:01;3.65;;;0.60;;
37239;SDS011;23130;48.760;9.178;2023-01-09T10:12:40;3.25;;;0.40;;
37239;SDS011;23130;48.760;9.178;2023-01-09T10:15:17;2.33;;;0.70;;
37239;SDS011;23130;48.760;9.178;2023-01-09T10:26:09;2.33;;;0.30;;
37239;SDS011;23130;48.760;9.178;2023-01-09T10:31:30;2.45;;;0.60;;
37239;SDS011;23130;48.760;9.178;2023-01-09T10:39:29;2.88;;;0.50;;
37239;SDS011;23130;48.760;9.178;2023-01-09T10:42:17;4.70;;;0.68;;
37239;SDS011;23130;48.760;9.178;2023-01-09T10:44:48;4.80;;;0.57;;
37239;SDS011;23130;48.760;9.178;2023-01-09T10:47:24;2.20;;;0.63;;
37239;SDS011;23130;48.760;9.178;2023-01-09T10:49:55;4.88;;;0.30;;
37239;SDS011;23130;48.760;9.178;2023-01-09T10:52:32;3.92;;;0.45;;
37239;SDS011;23130;48.760;9.178;2023-01-09T10:55:17;5.18;;;0.50;;
37239;SDS011;23130;48.760;9.178;2023-01-09T10:58:09;4.07;;;0.93;;
37239;SDS011;23130;48.760;9.178;2023-01-09T11:00:36;2.42;;;0.55;;
37239;SDS011;23130;48.760;9.178;2023-01-09T11:03:04;3.88;;;0.80;;
37239;SDS011;23130;48.760;9.178;2023-01-09T11:05:30;5.60;;;0.57;;
37239;SDS011;23130;48.760;9.178;2023-01-09T11:07:57;4.82;;;0.60;;
37239;SDS011;23130;48.760;9.178;2023-01-09T11:10:46;3.63;;;0.70;;
37239;SDS011;23130;48.760;9.178;2023-01-09T11:13:21;3.35;;;0.82;;
37239;SDS011;23130;48.760;9.178;2023-01-09T11:16:07;8.20;;;0.82;;
37239;SDS011;23130;48.760;9.178;2023-01-09T11:18:47;2.75;;;0.55;;
37239;SDS011;23130;48.760;9.178;2023-01-09T11:21:32;4.88;;;0.90;;
37239;SDS011;23130;48.760;9.178;2023-01-09T11:26:47;4.07;;;0.70;;
37239;SDS011;23130;48.760;9.178;2023-01-09T11:29:19;3.92;;;1.02;;
37239;SDS011;23130;48.760;9.178;2023-01-09T11:31:57;5.22;;;0.60;;
37239;SDS011;23130;48.760;9.178;2023-01-09T11:34:28;11.00;;;2.05;;
37239;SDS011;23130;48.760;9.178;2023-01-09T11:37:05;6.10;;;1.38;;
37239;SDS011;23130;48.760;9.178;2023-01-09T11:39:32;3.35;;;0.70;;
37239;SDS011;23130;48.760;9.178;2023-01-09T11:42:02;1.80;;;0.60;;
37239;SDS011;23130;48.760;9.178;2023-01-09T11:44:30;5.03;;;0.50;;
37239;SDS011;23130;48.760;9.178;2023-01-09T11:46:57;6.25;;;0.90;;
37239;SDS011;23130;48.760;9.178;2023-01-09T11:49:27;3.78;;;0.88;;
37239;SDS011;23130;48.760;9.178;2023-01-09T11:52:08;2.33;;;0.50;;
37239;SDS011;23130;48.760;9.178;2023-01-09T11:55:01;3.70;;;0.95;;
37239;SDS011;23130;48.760;9.178;2023-01-09T11:57:33;2.90;;;0.75;;
37239;SDS011;23130;48.760;9.178;2023-01-09T12:00:00;6.47;;;0.90;;
37239;SDS011;23130;48.760;9.178;2023-01-09T12:05:41;1.20;;;0.43;;
37239;SDS011;23130;48.760;9.178;2023-01-09T12:08:19;1.40;;;0.50;;
37239;SDS011;23130;48.760;9.178;2023-01-09T12:13:43;7.10;;;0.88;;
37239;SDS011;23130;48.760;9.178;2023-01-09T12:24:03;2.75;;;0.65;;
37239;SDS011;23130;48.760;9.178;2023-01-09T12:29:28;2.55;;;0.57;;
37239;SDS011;23130;48.760;9.178;2023-01-09T12:32:27;6.28;;;0.55;;
37239;SDS011;23130;48.760;9.178;2023-01-09T12:35:31;2.63;;;0.38;;
37239;SDS011;23130;48.760;9.178;2023-01-09T12:38:13;2.87;;;0.50;;
37239;SDS011;23130;48.760;9.178;2023-01-09T12:46:49;3.85;;;0.65;;
37239;SDS011;23130;48.760;9.178;2023-01-09T12:57:35;2.13;;;0.40;;
37239;SDS011;23130;48.760;9.178;2023-01-09T13:00:21;3.40;;;0.52;;
37239;SDS011;23130;48.760;9.178;2023-01-09T13:02:53;1.70;;;0.47;;
37239;SDS011;23130;48.760;9.178;2023-01-09T13:05:31;1.15;;;0.30;;
37239;SDS011;23130;48.760;9.178;2023-01-09T13:08:02;1.08;;;0.20;;
37239;SDS011;23130;48.760;9.178;2023-01-09T13:16:05;1.95;;;0.32;;
37239;SDS011;23130;48.760;9.178;2023-01-09T13:18:46;3.50;;;0.70;;
37239;SDS011;23130;48.760;9.178;2023-01-09T13:21:17;2.80;;;0.40;;
37239;SDS011;23130;48.760;9.178;2023-01-09T13:29:17;2.78;;;0.40;;
37239;SDS011;23130;48.760;9.178;2023-01-09T13:32:04;1.70;;;0.43;;
37239;SDS011;23130;48.760;9.178;2023-01-09T13:34:58;3.05;;;1.00;;
37239;SDS011;23130;48.760;9.178;2023-01-09T13:37:26;2.40;;;0.40;;
37239;SDS011;23130;48.760;9.178;2023-01-09T13:40:05;2.33;;;0.30;;
37239;SDS011;23130;48.760;9.178;2023-01-09T13:45:33;2.60;;;0.50;;
37239;SDS011;23130;48.760;9.178;2023-01-09T13:50:32;1.13;;;0.40;;
37239;SDS011;23130;48.760;9.178;2023-01-09T13:58:21;0.75;;;0.20;;
37239;SDS011;23130;48.760;9.178;2023-01-09T14:00:48;1.95;;;0.43;;
37239;SDS011;23130;48.760;9.178;2023-01-09T14:03:17;1.75;;;0.30;;
37239;SDS011;23130;48.760;9.178;2023-01-09T14:10:45;0.70;;;0.30;;
37239;SDS011;23130;48.760;9.178;2023-01-09T14:13:26;0.52;;;0.15;;
37239;SDS011;23130;48.760;9.178;2023-01-09T14:16:04;2.60;;;0.30;;
37239;SDS011;23130;48.760;9.178;2023-01-09T14:18:45;0.22;;;0.10;;
37239;SDS011;23130;48.760;9.178;2023-01-09T14:23:59;0.17;;;0.00;;
37239;SDS011;23130;48.760;9.178;2023-01-09T14:26:45;0.57;;;0.00;;
37239;SDS011;23130;48.760;9.178;2023-01-09T14:34:47;0.43;;;0.38;;
37239;SDS011;23130;48.760;9.178;2023-01-09T14:37:21;3.17;;;0.20;;
37239;SDS011;23130;48.760;9.178;2023-01-09T14:39:48;0.30;;;0.10;;
37239;SDS011;23130;48.760;9.178;2023-01-09T14:42:20;1.13;;;0.13;;
37239;SDS011;23130;48.760;9.178;2023-01-09T14:44:51;3.70;;;0.30;;
37239;SDS011;23130;48.760;9.178;2023-01-09T14:55:52;1.27;;;0.20;;
37239;SDS011;23130;48.760;9.178;2023-01-09T14:58:26;0.93;;;0.50;;
37239;SDS011;23130;48.760;9.178;2023-01-09T15:00:57;0.70;;;0.28;;
37239;SDS011;23130;48.760;9.178;2023-01-09T15:06:14;1.02;;;0.20;;
37239;SDS011;23130;48.760;9.178;2023-01-09T15:08:59;2.25;;;0.30;;
37239;SDS011;23130;48.760;9.178;2023-01-09T15:11:45;1.27;;;0.35;;
37239;SDS011;23130;48.760;9.178;2023-01-09T15:14:15;3.25;;;0.40;;
37239;SDS011;23130;48.760;9.178;2023-01-09T15:16:53;1.23;;;0.20;;
37239;SDS011;23130;48.760;9.178;2023-01-09T15:19:18;1.38;;;0.20;;
37239;SDS011;23130;48.760;9.178;2023-01-09T15:22:01;2.05;;;0.38;;
37239;SDS011;23130;48.760;9.178;2023-01-09T15:24:29;3.65;;;0.45;;
37239;SDS011;23130;48.760;9.178;2023-01-09T15:26:59;3.30;;;0.57;;
37239;SDS011;23130;48.760;9.178;2023-01-09T15:29:27;3.40;;;0.30;;
37239;SDS011;23130;48.760;9.178;2023-01-09T15:34:53;1.75;;;0.20;;
37239;SDS011;23130;48.760;9.178;2023-01-09T15:40:01;0.63;;;0.20;;
37239;SDS011;23130;48.760;9.178;2023-01-09T15:42:30;0.80;;;0.10;;
37239;SDS011;23130;48.760;9.178;2023-01-09T15:50:48;0.65;;;0.20;;
37239;SDS011;23130;48.760;9.178;2023-01-09T15:53:17;0.90;;;0.10;;
37239;SDS011;23130;48.760;9.178;2023-01-09T15:55:45;1.73;;;0.25;;
37239;SDS011;23130;48.760;9.178;2023-01-09T15:58:41;0.20;;;0.10;;
37239;SDS011;23130;48.760;9.178;2023-01-09T16:01:17;1.90;;;0.30;;
37239;SDS011;23130;48.760;9.178;2023-01-09T16:06:34;3.92;;;0.40;;
37239;SDS011;23130;48.760;9.178;2023-01-09T16:09:02;1.85;;;0.30;;
37239;SDS011;23130;48.760;9.178;2023-01-09T16:11:32;1.27;;;0.45;;
37239;SDS011;23130;48.760;9.178;2023-01-09T16:16:37;1.88;;;0.60;;
37239;SDS011;23130;48.760;9.178;2023-01-09T16:19:04;2.13;;;0.45;;
37239;SDS011;23130;48.760;9.178;2023-01-09T16:21:55;6.75;;;4.35;;
37239;SDS011;23130;48.760;9.178;2023-01-09T16:24:26;2.53;;;0.85;;
37239;SDS011;23130;48.760;9.178;2023-01-09T16:27:11;3.15;;;0.45;;
37239;SDS011;23130;48.760;9.178;2023-01-09T16:29:46;2.45;;;0.40;;
37239;SDS011;23130;48.760;9.178;2023-01-09T16:32:25;1.90;;;0.40;;
37239;SDS011;23130;48.760;9.178;2023-01-09T16:34:59;2.65;;;0.70;;
37239;SDS011;23130;48.760;9.178;2023-01-09T16:40:15;3.00;;;0.70;;
37239;SDS011;23130;48.760;9.178;2023-01-09T16:42:58;3.50;;;0.30;;
37239;SDS011;23130;48.760;9.178;2023-01-09T16:47:53;0.95;;;0.50;;
37239;SDS011;23130;48.760;9.178;2023-01-09T16:50:19;2.30;;;1.00;;
37239;SDS011;23130;48.760;9.178;2023-01-09T16:52:45;5.63;;;1.20;;
37239;SDS011;23130;48.760;9.178;2023-01-09T16:55:11;2.95;;;0.70;;
37239;SDS011;23130;48.760;9.178;2023-01-09T16:57:36;3.75;;;0.60;;
37239;SDS011;23130;48.760;9.178;2023-01-09T17:00:03;1.43;;;0.50;;
37239;SDS011;23130;48.760;9.178;2023-01-09T17:02:29;2.67;;;0.70;;
37239;SDS011;23130;48.760;9.178;2023-01-09T17:04:55;0.85;;;0.30;;
37239;SDS011;23130;48.760;9.178;2023-01-09T17:07:21;0.65;;;0.30;;
37239;SDS011;23130;48.760;9.178;2023-01-09T17:09:50;1.75;;;0.68;;
37239;SDS011;23130;48.760;9.178;2023-01-09T17:12:18;1.23;;;0.60;;
37239;SDS011;23130;48.760;9.178;2023-01-09T17:14:48;0.98;;;0.50;;
37239;SDS011;23130;48.760;9.178;2023-01-09T17:17:14;1.58;;;0.50;;
37239;SDS011;23130;48.760;9.178;2023-01-09T17:19:41;1.02;;;0.60;;
37239;SDS011;23130;48.760;9.178;2023-01-09T17:22:07;2.95;;;1.05;;
37239;SDS011;23130;48.760;9.178;2023-01-09T17:24:33;4.00;;;0.70;;
37239;SDS011;23130;48.760;9.178;2023-01-09T17:27:18;2.03;;;0.40;;
37239;SDS011;23130;48.760;9.178;2023-01-09T17:30:09;1.55;;;0.30;;
37239;SDS011;23130;48.760;9.178;2023-01-09T17:32:35;1.10;;;0.28;;
37239;SDS011;23130;48.760;9.178;2023-01-09T17:35:00;2.38;;;0.40;;
37239;SDS011;23130;48.760;9.178;2023-01-09T17:37:26;1.58;;;0.40;;
37239;SDS011;23130;48.760;9.178;2023-01-09T17:39:51;2.13;;;0.70;;
37239;SDS011;23130;48.760;9.178;2023-01-09T17:42:17;1.00;;;0.50;;
37239;SDS011;23130;48.760;9.178;2023-01-09T17:44:42;1.67;;;0.52;;
37239;SDS011;23130;48.760;9.178;2023-01-09T17:47:12;1.63;;;0.40;;
37239;SDS011;23130;48.760;9.178;2023-01-09T17:49:39;1.40;;;0.50;;